Mission Field
KLVM : rendu visible

Aérodrome :











RETROUVEZ-NOUS SUR...

 
LOGIN :

S'inscrire | Disclaimer

   EN    FR    IT 

 









Légende :    VFR   VFR Marginal   IFR   IFR Intensif   IFR Très Intensif
Visi : 
Plafond : 
>= 8 km
>= 3000ft
5 à 8 km
1000 à 3000 ft
1500m à 5 km
500 à 1000 ft
800 à 1500m
200 à 500 ft
< 800m
< 200 ft
Symboles :   Orages  Brouillard  Fortes neiges  Fortes précipitations  Vent > 20 kt






- Altitude de l'aérodrome : 4660 ft


KLVM - Mission Field

DERNIER METAR :
  • 040853Z AUTO 18003KT 10SM SCT100 10/06 A2992 RMK AO2 SLP093 T01000061 56012

METARs EXPIRÉS :
  • 040753Z AUTO 03004KT 10SM FEW110 13/06 A2993 RMK AO2 SLP094 T01280061
  • 040653Z AUTO 26004KT 10SM FEW110 14/06 A2994 RMK AO2 SLP097 T01390061 402780100

TAF KLVM
Valide du 04 à 06h jusqu'au 05 à 06h UTC


040520Z 0406/0506 09009KT P6SM SCT120
FM040700 VRB06KT P6SM SCT200
FM041800 28014G21KT P6SM SCT120 BKN200
FIR KZLC / Amérique du Nord



MET'MAP, la Météo Aéronautique d'un coup d'oeil ! - Copyright ORBIFLY Décembre 2007 - Disclaimer

ORBIFLY MET'MAP TEAM :

Programmation & Développement : Alexandra Zaïnal
Sur une idée originale de : Baudouin d'Aumeries
Assistance à la programmation : Marc-Olivier Méhu
Soutien technique & logistique : Manuel Goepfert

Contact : metmap@orbifly.com




SOURCES & CREDITS :

   NOAA       Earth
Advisory